NBO343 ENAL-ENOL

Flight info

Callsign NBO343
Flight time 0h 46m
Altitude 3500
Route COASTLINE
Aircraft C208/L-SDFGRWY/L

Departure

Time 2026-04-26 13:44
Airport Ålesund Airport (ENAL)

Arrival

Time 2026-04-26 14:30
Airport Ørland Airport (ENOL)
Time Latitude Longitude Altitude Speed Heading
2026-04-26 13:36 62.55832 6.11140 50 ft 0 kts 155°
2026-04-26 13:38 62.55837 6.11199 50 ft 6 kts
2026-04-26 13:39 62.55891 6.11182 48 ft 10 kts 345°
2026-04-26 13:39 62.55934 6.11293 50 ft 12 kts 68°
2026-04-26 13:39 62.56002 6.11406 52 ft 13 kts 19°
2026-04-26 13:39 62.56018 6.11409 52 ft 0 kts 344°
2026-04-26 13:40 62.56094 6.11298 52 ft 23 kts 294°
2026-04-26 13:40 62.56041 6.10997 52 ft 22 kts 240°
2026-04-26 13:41 62.55978 6.10691 49 ft 21 kts 249°
2026-04-26 13:41 62.55927 6.10436 48 ft 15 kts 245°
2026-04-26 13:41 62.55889 6.10251 46 ft 12 kts 245°
2026-04-26 13:41 62.55855 6.10101 46 ft 11 kts 250°
2026-04-26 13:42 62.55800 6.09911 45 ft 15 kts 180°
2026-04-26 13:42 62.55803 6.10018 46 ft 14 kts 22°
2026-04-26 13:42 62.55835 6.10063 46 ft 0 kts 62°
2026-04-26 13:43 62.55924 6.10477 48 ft 77 kts 65°
2026-04-26 13:43 62.56212 6.11911 230 ft 118 kts 66°
2026-04-26 13:44 62.56533 6.13500 793 ft 110 kts 65°
2026-04-26 13:44 62.56829 6.15057 1254 ft 115 kts 66°
2026-04-26 13:44 62.57111 6.16715 1643 ft 120 kts 67°
2026-04-26 13:44 62.57458 6.18364 2054 ft 118 kts 62°
2026-04-26 13:45 62.57849 6.19917 2467 ft 119 kts 53°
2026-04-26 13:45 62.58307 6.21420 2844 ft 119 kts 52°
2026-04-26 13:45 62.58875 6.22721 3271 ft 118 kts 40°
2026-04-26 13:45 62.59463 6.23992 3542 ft 130 kts 44°
2026-04-26 13:46 62.60130 6.25570 3567 ft 147 kts 47°
2026-04-26 13:46 62.60824 6.27273 3527 ft 161 kts 47°
2026-04-26 13:46 62.61551 6.29157 3527 ft 163 kts 47°
2026-04-26 13:46 62.62273 6.31070 3511 ft 165 kts 51°
2026-04-26 13:47 62.62961 6.33076 3502 ft 165 kts 54°
2026-04-26 13:47 62.63565 6.35202 3521 ft 166 kts 59°
2026-04-26 13:47 62.64137 6.37378 3522 ft 166 kts 58°
2026-04-26 13:47 62.64703 6.39566 3538 ft 166 kts 60°
2026-04-26 13:48 62.65235 6.41764 3537 ft 167 kts 60°
2026-04-26 13:48 62.65805 6.43943 3535 ft 166 kts 56°
2026-04-26 13:48 62.66493 6.45968 3514 ft 166 kts 48°
2026-04-26 13:48 62.67328 6.47674 3492 ft 165 kts 36°
2026-04-26 13:49 62.68239 6.49179 3508 ft 164 kts 36°
2026-04-26 13:49 62.69147 6.50689 3494 ft 165 kts 36°
2026-04-26 13:49 62.70062 6.52180 3507 ft 164 kts 33°
2026-04-26 13:49 62.70875 6.53878 3508 ft 166 kts 49°
2026-04-26 13:50 62.71570 6.55887 3511 ft 166 kts 52°
2026-04-26 13:50 62.72262 6.57910 3505 ft 166 kts 51°
2026-04-26 13:50 62.72955 6.59923 3504 ft 166 kts 51°
2026-04-26 13:50 62.73649 6.61935 3510 ft 166 kts 51°
2026-04-26 13:51 62.74346 6.63964 3510 ft 167 kts 51°
2026-04-26 13:51 62.75013 6.65904 3510 ft 167 kts 51°
2026-04-26 13:51 62.75772 6.68116 3510 ft 167 kts 51°
2026-04-26 13:51 62.76474 6.70160 3508 ft 167 kts 51°
2026-04-26 13:52 62.77171 6.72187 3504 ft 167 kts 51°
2026-04-26 13:52 62.77882 6.74259 3510 ft 167 kts 51°
2026-04-26 13:52 62.78560 6.76241 3499 ft 167 kts 51°
2026-04-26 13:52 62.79255 6.78273 3501 ft 167 kts 51°
2026-04-26 13:53 62.79960 6.80332 3500 ft 167 kts 51°
2026-04-26 13:53 62.80665 6.82389 3505 ft 167 kts 51°
2026-04-26 13:53 62.81372 6.84467 3507 ft 168 kts 51°
2026-04-26 13:53 62.82136 6.86718 3499 ft 168 kts 51°
2026-04-26 13:54 62.82581 6.88016 3497 ft 168 kts 51°
2026-04-26 13:54 62.83338 6.90224 3509 ft 169 kts 51°
2026-04-26 13:54 62.84042 6.92304 3504 ft 170 kts 51°
2026-04-26 13:55 62.85449 6.96443 3499 ft 169 kts 51°
2026-04-26 13:55 62.85920 6.97835 3501 ft 168 kts 52°
2026-04-26 13:55 62.87537 7.02605 3498 ft 167 kts 51°
2026-04-26 13:56 62.88234 7.04663 3503 ft 169 kts 51°
2026-04-26 13:56 62.88931 7.06735 3500 ft 169 kts 52°
2026-04-26 13:56 62.89634 7.08803 3509 ft 170 kts 51°
2026-04-26 13:56 62.90333 7.10887 3500 ft 169 kts 52°
2026-04-26 13:57 62.91030 7.12960 3496 ft 168 kts 51°
2026-04-26 13:57 62.91729 7.15013 3497 ft 168 kts 51°
2026-04-26 13:57 62.92414 7.17064 3498 ft 167 kts 51°
2026-04-26 13:57 62.93106 7.19118 3497 ft 168 kts 50°
2026-04-26 13:58 62.93797 7.21166 3494 ft 167 kts 51°
2026-04-26 13:58 62.94486 7.23225 3493 ft 167 kts 51°
2026-04-26 13:58 62.95172 7.25277 3491 ft 166 kts 51°
2026-04-26 13:58 62.95853 7.27311 3490 ft 165 kts 51°
2026-04-26 13:59 62.96531 7.29337 3498 ft 165 kts 51°
2026-04-26 13:59 62.97214 7.31372 3494 ft 166 kts 51°
2026-04-26 13:59 62.97894 7.33412 3494 ft 166 kts 51°
2026-04-26 14:00 62.99943 7.39558 3485 ft 168 kts 51°
2026-04-26 14:00 63.00636 7.41637 3484 ft 168 kts 51°
2026-04-26 14:00 63.01103 7.43041 3477 ft 168 kts 51°
2026-04-26 14:01 63.02023 7.45799 3493 ft 169 kts 51°
2026-04-26 14:01 63.02711 7.47882 3489 ft 168 kts 51°
2026-04-26 14:01 63.03400 7.49961 3491 ft 167 kts 51°
2026-04-26 14:01 63.04089 7.52043 3499 ft 169 kts 51°
2026-04-26 14:02 63.04787 7.54149 3496 ft 169 kts 51°
2026-04-26 14:02 63.05478 7.56238 3494 ft 168 kts 50°
2026-04-26 14:02 63.06165 7.58308 3493 ft 168 kts 50°
2026-04-26 14:02 63.06850 7.60393 3492 ft 168 kts 51°
2026-04-26 14:03 63.07534 7.62467 3495 ft 167 kts 51°
2026-04-26 14:03 63.08213 7.64525 3507 ft 168 kts 51°
2026-04-26 14:03 63.08903 7.66621 3504 ft 169 kts 51°
2026-04-26 14:03 63.09592 7.68708 3504 ft 168 kts 51°
2026-04-26 14:04 63.10278 7.70804 3498 ft 168 kts 51°
2026-04-26 14:04 63.10961 7.72891 3502 ft 168 kts 51°
2026-04-26 14:04 63.11646 7.74978 3504 ft 168 kts 51°
2026-04-26 14:04 63.12333 7.77072 3505 ft 168 kts 51°
2026-04-26 14:05 63.13019 7.79158 3501 ft 168 kts 51°
2026-04-26 14:05 63.13704 7.81253 3497 ft 168 kts 51°
2026-04-26 14:05 63.14390 7.83351 3504 ft 168 kts 51°
2026-04-26 14:05 63.15065 7.85419 3502 ft 168 kts 51°
2026-04-26 14:06 63.15746 7.87511 3508 ft 168 kts 50°
2026-04-26 14:06 63.16434 7.89626 3508 ft 170 kts 51°
2026-04-26 14:06 63.17125 7.91748 3507 ft 170 kts 50°
2026-04-26 14:06 63.17821 7.93884 3501 ft 172 kts 51°
2026-04-26 14:07 63.18516 7.96041 3504 ft 171 kts 51°
2026-04-26 14:07 63.19218 7.98181 3502 ft 172 kts 51°
2026-04-26 14:07 63.19917 8.00334 3498 ft 172 kts 51°
2026-04-26 14:07 63.20614 8.02484 3495 ft 171 kts 51°
2026-04-26 14:08 63.21296 8.04608 3495 ft 172 kts 51°
2026-04-26 14:08 63.21988 8.06754 3494 ft 171 kts 50°
2026-04-26 14:08 63.22687 8.08898 3495 ft 171 kts 51°
2026-04-26 14:08 63.23382 8.11047 3492 ft 171 kts 51°
2026-04-26 14:09 63.24072 8.13185 3487 ft 170 kts 50°
2026-04-26 14:09 63.24755 8.15313 3485 ft 169 kts 51°
2026-04-26 14:09 63.25439 8.17435 3486 ft 169 kts 50°
2026-04-26 14:09 63.26120 8.19552 3484 ft 169 kts 51°
2026-04-26 14:10 63.26803 8.21675 3481 ft 168 kts 50°
2026-04-26 14:10 63.27472 8.23762 3483 ft 168 kts 51°
2026-04-26 14:10 63.28152 8.25879 3480 ft 169 kts 50°
2026-04-26 14:10 63.28830 8.28000 3476 ft 168 kts 51°
2026-04-26 14:11 63.30193 8.32253 3473 ft 170 kts 51°
2026-04-26 14:11 63.30883 8.34413 3480 ft 174 kts 51°
2026-04-26 14:11 63.31583 8.36607 3478 ft 173 kts 50°
2026-04-26 14:12 63.32278 8.38793 3474 ft 173 kts 52°
2026-04-26 14:12 63.32970 8.40962 3465 ft 171 kts 51°
2026-04-26 14:12 63.33657 8.43110 3465 ft 170 kts 51°
2026-04-26 14:12 63.34335 8.45248 3462 ft 169 kts 51°
2026-04-26 14:13 63.35685 8.49494 3468 ft 167 kts 51°
2026-04-26 14:13 63.36361 8.51624 3468 ft 169 kts 51°
2026-04-26 14:13 63.37043 8.53782 3474 ft 168 kts 51°
2026-04-26 14:14 63.37728 8.55948 3472 ft 168 kts 51°
2026-04-26 14:14 63.38391 8.58046 3472 ft 169 kts 51°
2026-04-26 14:14 63.39068 8.60189 3466 ft 168 kts 49°
2026-04-26 14:14 63.39741 8.62313 3465 ft 168 kts 51°
2026-04-26 14:15 63.40410 8.64446 3466 ft 168 kts 51°
2026-04-26 14:15 63.41086 8.66581 3468 ft 169 kts 50°
2026-04-26 14:15 63.41762 8.68727 3469 ft 169 kts 51°
2026-04-26 14:15 63.42431 8.70869 3463 ft 168 kts 50°
2026-04-26 14:16 63.43098 8.72983 3471 ft 167 kts 50°
2026-04-26 14:16 63.43769 8.75122 3468 ft 167 kts 50°
2026-04-26 14:16 63.44439 8.77250 3466 ft 167 kts 50°
2026-04-26 14:16 63.45105 8.79381 3473 ft 167 kts 50°
2026-04-26 14:17 63.45770 8.81511 3472 ft 167 kts 50°
2026-04-26 14:17 63.46436 8.83639 3472 ft 167 kts 50°
2026-04-26 14:17 63.47023 8.85517 3470 ft 167 kts 50°
2026-04-26 14:18 63.47629 8.87458 3468 ft 167 kts 50°
2026-04-26 14:18 63.48288 8.89571 3466 ft 168 kts 51°
2026-04-26 14:18 63.48954 8.91710 3471 ft 168 kts 51°
2026-04-26 14:18 63.49618 8.93846 3476 ft 168 kts 50°
2026-04-26 14:19 63.50156 8.95564 3467 ft 168 kts 50°
2026-04-26 14:19 63.50559 8.96864 3477 ft 168 kts 51°
2026-04-26 14:19 63.51238 8.99054 3469 ft 168 kts 50°
2026-04-26 14:19 63.51900 9.01189 3466 ft 170 kts 51°
2026-04-26 14:20 63.52591 9.03426 3461 ft 169 kts 50°
2026-04-26 14:20 63.53285 9.05656 3464 ft 169 kts 50°
2026-04-26 14:20 63.53937 9.07763 3465 ft 169 kts 50°
2026-04-26 14:20 63.54603 9.09924 3460 ft 169 kts 50°
2026-04-26 14:21 63.55275 9.12093 3462 ft 170 kts 50°
2026-04-26 14:21 63.55932 9.14237 3458 ft 168 kts 50°
2026-04-26 14:21 63.56609 9.16419 3459 ft 170 kts 50°
2026-04-26 14:21 63.57274 9.18587 3455 ft 171 kts 51°
2026-04-26 14:22 63.57954 9.20797 3451 ft 169 kts 50°
2026-04-26 14:22 63.58631 9.22998 3452 ft 168 kts 50°
2026-04-26 14:22 63.59294 9.25157 3449 ft 168 kts 50°
2026-04-26 14:22 63.59957 9.27318 3450 ft 167 kts 50°
2026-04-26 14:23 63.60600 9.29431 3377 ft 161 kts 50°
2026-04-26 14:23 63.61236 9.31502 3213 ft 161 kts 50°
2026-04-26 14:23 63.61859 9.33538 3050 ft 160 kts 50°
2026-04-26 14:23 63.62492 9.35604 2891 ft 160 kts 50°
2026-04-26 14:24 63.63120 9.37666 2729 ft 159 kts 50°
2026-04-26 14:24 63.63747 9.39718 2569 ft 159 kts 50°
2026-04-26 14:24 63.64355 9.41725 2398 ft 152 kts 50°
2026-04-26 14:24 63.64947 9.43668 2240 ft 149 kts 49°
2026-04-26 14:25 63.65397 9.45808 1960 ft 162 kts 79°
2026-04-26 14:25 63.65297 9.48300 1837 ft 159 kts 94°
2026-04-26 14:25 63.65144 9.50669 1826 ft 148 kts 88°
2026-04-26 14:25 63.65212 9.52889 1880 ft 140 kts 71°
2026-04-26 14:26 63.65465 9.55020 1829 ft 146 kts 68°
2026-04-26 14:26 63.65696 9.57267 1840 ft 149 kts 73°
2026-04-26 14:26 63.65857 9.59597 1720 ft 149 kts 77°
2026-04-26 14:26 63.65992 9.61841 1352 ft 148 kts 79°
2026-04-26 14:27 63.65796 9.63947 1196 ft 136 kts 128°
2026-04-26 14:27 63.65028 9.64620 1037 ft 109 kts 196°
2026-04-26 14:27 63.64543 9.63753 858 ft 85 kts 266°
2026-04-26 14:27 63.64818 9.62892 693 ft 82 kts 353°
2026-04-26 14:28 63.65376 9.63330 635 ft 78 kts 21°
2026-04-26 14:28 63.65777 9.63856 667 ft 65 kts
2026-04-26 14:28 63.66267 9.63933 669 ft 76 kts 355°
2026-04-26 14:28 63.66765 9.63766 629 ft 66 kts 340°
2026-04-26 14:29 63.67172 9.63429 491 ft 62 kts 333°
2026-04-26 14:29 63.67553 9.63010 392 ft 61 kts 332°
2026-04-26 14:29 63.67939 9.62581 253 ft 62 kts 334°
2026-04-26 14:29 63.68299 9.62174 154 ft 57 kts 328°
2026-04-26 14:30 63.68660 9.61767 68 ft 57 kts 330°
2026-04-26 14:30 63.68977 9.61411 36 ft 41 kts 332°
2026-04-26 14:30 63.69179 9.61188 38 ft 25 kts 336°
2026-04-26 14:30 63.69349 9.61004 37 ft 32 kts 337°
2026-04-26 14:31 63.69516 9.60814 34 ft 22 kts 339°
2026-04-26 14:31 63.69561 9.60915 33 ft 9 kts 89°
2026-04-26 14:31 63.69567 9.61141 34 ft 19 kts 93°
2026-04-26 14:31 63.69568 9.61445 34 ft 20 kts 89°
2026-04-26 14:32 63.69571 9.61759 35 ft 20 kts 86°
2026-04-26 14:32 63.69545 9.61934 35 ft 0 kts 191°